Latest Coastal Weather Observations for Lihou Reef Lighthouse

IDQ60701

Issued at 4:52 pm EST Wednesday 8 February 2023 (issued every 10 minutes, with the page automatically refreshed every 10 minutes)

About coastal observations | Map of coastal stations | Coastal observations for QLD | Marine services | Other Formats
Station Details ID: 200880 Name: LIHOU REEF LIGHTHOUSE Lat: -17.13 Lon: 152.15 Height: 10.26 m
Data from the previous 72 hours. | See also: Recent months at Lihou Reef Lighthouse
Date/Time
EST
Wind Sea
Height
m
Swell Vis
km
Cloud Weather Temp
°C
Press
MSL
hPa
Rain since
9am
mm
Dir  Spd
kts
Gust
kts
Height
m
Period
s
Dir
08/04:30pm SE 26 35 - - - - - - - 27.4 993.2 -
08/04:00pm SE 26 33 - - - - - - - 27.1 993.0 -
08/03:30pm ESE 24 29 - - - - - - - 27.0 993.3 -
08/03:00pm SE 26 33 - - - - - - - 27.3 993.1 -
08/02:30pm ESE 27 36 - - - - - - - 27.8 994.0 -
08/02:00pm SE 26 34 - - - - - - - 28.3 994.6 -
08/01:30pm SE 24 28 - - - - - - - 28.4 995.1 -
08/01:00pm SE 26 32 - - - - - - - 28.8 995.3 -
08/12:30pm SE 25 30 - - - - - - - 28.6 995.7 -
08/12:00pm SE 24 30 - - - - - - - 28.6 996.2 -
08/11:30am ESE 25 31 - - - - - - - 28.8 996.9 -
08/11:00am ESE 24 30 - - - - - - - 28.6 997.7 -
08/10:30am SE 23 29 - - - - - - - 28.8 997.9 -
08/10:00am ESE 23 28 - - - - - - - 28.8 998.2 -
08/09:30am ESE 24 29 - - - - - - - 28.8 998.3 -
08/09:00am ESE 24 31 - - - - - - - 28.6 998.7 -
08/08:30am SE 25 32 - - - - - - - 28.5 998.5 -
08/08:00am SE 25 31 - - - - - - - 28.4 998.6 -
08/07:30am SE 25 32 - - - - - - - 28.1 998.8 -
08/07:00am SE 23 28 - - - - - - - 28.4 998.7 -
08/06:30am SE 26 30 - - - - - - - 28.5 998.6 -
08/06:00am SE 25 30 - - - - - - - 28.5 998.3 -
08/05:30am SE 22 26 - - - - - - - 28.4 998.0 -
08/05:00am SE 23 28 - - - - - - - 28.2 997.9 -
08/04:30am SE 22 27 - - - - - - - 28.4 998.1 -
08/04:00am SE 24 30 - - - - - - - 28.3 997.9 -
08/03:30am SE 21 25 - - - - - - - 28.0 998.3 -
08/03:00am ESE 21 24 - - - - - - - 28.1 998.9 -
08/02:30am SE 24 27 - - - - - - - 28.1 998.9 -
08/02:00am SE 22 27 - - - - - - - 28.4 999.1 -
08/01:30am ESE 19 22 - - - - - - - 27.8 999.9 -
08/01:00am ESE 18 21 - - - - - - - 27.4 1000.5 -
08/12:30am SE 20 24 - - - - - - - 28.2 1001.0 -
08/12:00am SE 19 23 - - - - - - - 28.1 1001.5 -
 
Date/Time
EST
Wind Sea
Height
m
Swell Vis
km
Cloud Weather Temp
°C
Press
MSL
hPa
Rain since
9am
mm
Dir  Spd
kts
Gust
kts
Height
m
Period
s
Dir
07/11:30pm SE 21 26 - - - - - - - 28.1 1001.7 -
07/11:00pm SE 22 28 - - - - - - - 27.8 1001.9 -
07/10:30pm SE 22 25 - - - - - - - 28.4 1002.0 -
07/10:00pm SE 21 27 - - - - - - - 28.6 1002.3 -
07/09:30pm SE 21 25 - - - - - - - 28.4 1002.4 -
07/09:00pm SE 23 29 - - - - - - - 28.0 1002.3 -
07/08:30pm SE 23 27 - - - - - - - 28.0 1002.4 -
07/08:00pm SE 22 26 - - - - - - - 28.2 1002.2 -
07/07:30pm SE 23 27 - - - - - - - 28.0 1001.9 -
07/07:10pm SE 21 31 - - - - - - - 28.1 1001.8 -
07/07:00pm SE 21 24 - - - - - - - 28.0 1001.7 -
07/06:30pm SE 23 28 - - - - - - - 26.5 1001.8 -
07/06:15pm SE 22 33 - - - - - - - 27.5 1001.7 -
07/06:00pm SE 21 26 - - - - - - - 27.3 1001.2 -
07/05:30pm SE 21 28 - - - - - - - 27.7 1001.3 -
07/05:00pm SE 19 23 - - - - - - - 28.4 1001.1 -
07/04:30pm SE 20 24 - - - - - - - 28.5 1000.7 -
07/04:00pm SE 20 24 - - - - - - - 28.6 1000.9 -
07/03:30pm SE 15 18 - - - - - - - 28.4 1001.2 -
07/03:00pm ESE 18 23 - - - - - - - 27.9 1001.4 -
07/02:30pm SE 15 20 - - - - - - - 28.2 1001.7 -
07/02:00pm SE 15 18 - - - - - - - 28.1 1002.1 -
07/01:30pm SE 13 17 - - - - - - - 28.3 1001.9 -
07/01:00pm SE 16 18 - - - - - - - 27.8 1002.0 -
07/12:30pm SE 18 22 - - - - - - - 27.5 1002.3 -
07/12:00pm SE 18 25 - - - - - - - 28.1 1002.7 -
07/11:30am SE 19 22 - - - - - - - 28.7 1003.0 -
07/11:00am ESE 16 19 - - - - - - - 28.8 1003.5 -
07/10:30am ESE 17 19 - - - - - - - 28.3 1003.9 -
07/10:00am ESE 18 22 - - - - - - - 27.4 1004.0 -
07/09:30am ESE 19 23 - - - - - - - 27.6 1003.9 -
07/09:00am SE 17 20 - - - - - - - 29.0 1003.7 -
07/08:30am SE 16 20 - - - - - - - 28.8 1003.7 -
07/08:00am SE 17 22 - - - - - - - 28.6 1003.6 -
07/07:30am ESE 17 20 - - - - - - - 28.5 1003.6 -
07/07:00am SE 20 23 - - - - - - - 28.6 1003.4 -
07/06:30am SE 21 27 - - - - - - - 27.7 1003.0 -
07/06:00am SE 21 25 - - - - - - - 28.2 1002.9 -
07/05:30am SE 19 22 - - - - - - - 28.4 1002.5 -
07/05:00am SSE 18 21 - - - - - - - 27.7 1002.2 -
07/04:30am SE 23 27 - - - - - - - 27.3 1002.2 -
07/04:00am SE 21 24 - - - - - - - 28.3 1002.5 -
07/03:30am SE 18 22 - - - - - - - 27.9 1002.6 -
07/03:00am SSE 19 23 - - - - - - - 28.0 1002.8 -
07/02:30am SSE 19 23 - - - - - - - 28.1 1002.8 -
07/02:00am SSE 16 19 - - - - - - - 27.8 1003.3 -
07/01:30am SSE 19 23 - - - - - - - 27.9 1003.5 -
07/01:00am SE 19 21 - - - - - - - 28.2 1004.2 -
07/12:30am SE 20 28 - - - - - - - 27.1 1005.0 -
07/12:25am SE 18 28 - - - - - - - 28.4 1004.8 -
07/12:00am SE 18 21 - - - - - - - 28.5 1005.3 -
 
Date/Time
EST
Wind Sea
Height
m
Swell Vis
km
Cloud Weather Temp
°C
Press
MSL
hPa
Rain since
9am
mm
Dir  Spd
kts
Gust
kts
Height
m
Period
s
Dir
06/11:30pm SE 18 22 - - - - - - - 28.7 1005.7 -
06/11:00pm SE 17 21 - - - - - - - 28.7 1005.9 -
06/10:30pm SE 20 23 - - - - - - - 28.6 1005.9 -
06/10:00pm SE 21 24 - - - - - - - 28.8 1006.0 -
06/09:30pm SE 21 25 - - - - - - - 28.8 1005.8 -
06/09:00pm SE 22 26 - - - - - - - 28.7 1005.4 -
06/08:30pm SE 21 26 - - - - - - - 28.8 1005.3 -
06/08:00pm SE 19 23 - - - - - - - 28.8 1005.5 -
06/07:30pm SE 19 22 - - - - - - - 28.7 1005.8 -
06/07:00pm SSE 17 20 - - - - - - - 28.7 1005.8 -
06/06:30pm SSE 17 20 - - - - - - - 28.7 1005.6 -
06/06:00pm SE 18 20 - - - - - - - 28.7 1005.3 -
06/05:30pm SE 17 21 - - - - - - - 28.9 1005.2 -
06/05:00pm SE 17 21 - - - - - - - 28.9 1005.0 -
06/04:30pm SE 19 22 - - - - - - - 28.8 1004.6 -
06/04:00pm SSE 17 21 - - - - - - - 28.6 1004.5 -
06/03:30pm SSE 17 20 - - - - - - - 28.8 1004.7 -
06/03:00pm SSE 16 19 - - - - - - - 28.6 1004.9 -
06/02:30pm SE 15 17 - - - - - - - 28.7 1005.2 -
06/02:00pm SE 15 17 - - - - - - - 28.6 1005.6 -
06/01:30pm SE 14 17 - - - - - - - 28.6 1006.0 -
06/01:00pm SE 17 20 - - - - - - - 28.7 1006.3 -
06/12:30pm SE 17 21 - - - - - - - 28.6 1006.6 -
06/12:00pm SE 17 20 - - - - - - - 28.7 1006.8 -
06/11:30am SE 17 21 - - - - - - - 28.6 1007.1 -
06/11:00am SE 18 21 - - - - - - - 28.7 1007.4 -
06/10:30am SE 17 20 - - - - - - - 28.7 1007.7 -
06/10:00am SE 15 17 - - - - - - - 28.8 1007.9 -
06/09:30am SE 14 16 - - - - - - - 28.8 1008.3 -
06/09:00am SE 12 14 - - - - - - - 28.7 1008.2 -
06/08:30am SE 13 16 - - - - - - - 28.8 1008.1 -
06/08:00am SE 14 17 - - - - - - - 28.6 1007.9 -
06/07:30am SE 14 16 - - - - - - - 28.5 1007.5 -
06/07:00am SE 13 15 - - - - - - - 28.5 1007.7 -
06/06:30am SE 15 18 - - - - - - - 28.3 1007.3 -
06/06:00am SE 16 19 - - - - - - - 28.4 1007.0 -
06/05:30am SE 16 19 - - - - - - - 28.2 1006.7 -
06/05:00am SE 17 20 - - - - - - - 28.4 1006.4 -
06/04:30am SE 18 20 - - - - - - - 28.4 1005.9 -
06/04:00am SE 18 21 - - - - - - - 28.5 1006.1 -
06/03:30am ESE 16 19 - - - - - - - 28.5 1006.0 -
06/03:00am ESE 16 19 - - - - - - - 28.5 1006.2 -
06/02:30am ESE 16 19 - - - - - - - 28.6 1006.1 -
06/02:00am ESE 16 19 - - - - - - - 28.7 1006.1 -
06/01:30am ESE 16 19 - - - - - - - 28.7 1006.3 -
06/01:00am ESE 14 17 - - - - - - - 28.8 1006.6 -
06/12:30am ESE 13 16 - - - - - - - 28.7 1006.9 -
06/12:00am ESE 15 18 - - - - - - - 28.8 1007.1 -
 
Date/Time
EST
Wind Sea
Height
m
Swell Vis
km
Cloud Weather Temp
°C
Press
MSL
hPa
Rain since
9am
mm
Dir  Spd
kts
Gust
kts
Height
m
Period
s
Dir
05/11:30pm ESE 14 16 - - - - - - - 28.8 1007.2 -
05/11:00pm ESE 13 15 - - - - - - - 28.9 1007.5 -
05/10:30pm ESE 14 16 - - - - - - - 28.9 1007.5 -
05/10:00pm ESE 12 14 - - - - - - - 28.7 1007.6 -
05/09:30pm ESE 15 17 - - - - - - - 29.1 1007.6 -
05/09:00pm ESE 11 14 - - - - - - - 29.0 1007.6 -
05/08:30pm ESE 12 14 - - - - - - - 29.0 1007.4 -
05/08:00pm ESE 12 14 - - - - - - - 29.1 1007.2 -
05/07:30pm ESE 12 14 - - - - - - - 29.0 1007.1 -
05/07:00pm ESE 13 15 - - - - - - - 29.0 1006.9 -
05/06:30pm ESE 13 15 - - - - - - - 29.1 1006.5 -
05/06:00pm ESE 13 14 - - - - - - - 29.1 1006.3 -
05/05:30pm ESE 11 13 - - - - - - - 29.4 1006.2 -
05/05:00pm ESE 11 13 - - - - - - - 29.4 1005.9 -

Other formats

Comma delimited format used in spreadsheet applications
http://www.bom.gov.au/fwo/IDQ60701/IDQ60701.94293.axf

JavaScript Object Notation format (JSON) in row-major order
http://www.bom.gov.au/fwo/IDQ60701/IDQ60701.94293.json

Data quality

Most of these data are generated automatically and are frequently updated. Quality checks on data are not normally performed. It is possible for incorrect values to appear. Refer to information at About Latest Weather Observations and please check the disclaimer before using these data.